createdAt,value
2023-05-16T00:00:07.546Z,0.00
2023-05-16T00:01:07.527Z,0.00
2023-05-16T00:02:07.574Z,0.00
2023-05-16T00:03:07.553Z,0.00
2023-05-16T00:04:07.597Z,0.00
2023-05-16T00:05:07.464Z,0.00
2023-05-16T00:06:07.494Z,0.00
2023-05-16T00:07:07.469Z,0.00
2023-05-16T00:08:07.464Z,0.00
2023-05-16T00:09:07.475Z,0.00
2023-05-16T00:10:07.458Z,0.00
2023-05-16T00:11:07.439Z,0.00
2023-05-16T00:12:07.429Z,0.00
2023-05-16T00:13:07.436Z,0.00
2023-05-16T00:14:07.435Z,0.00
2023-05-16T00:15:07.436Z,0.00
2023-05-16T00:16:07.458Z,0.00
2023-05-16T00:17:07.665Z,0.00
2023-05-16T00:18:07.440Z,0.00
2023-05-16T00:19:07.465Z,0.00
2023-05-16T00:20:07.475Z,0.00
2023-05-16T00:21:07.407Z,0.00
2023-05-16T00:22:07.360Z,0.00
2023-05-16T00:23:07.351Z,0.00
2023-05-16T00:24:07.394Z,0.00
2023-05-16T00:25:07.327Z,0.00
2023-05-16T00:26:08.388Z,0.00
2023-05-16T00:27:07.343Z,0.00
2023-05-16T00:28:07.336Z,0.00
2023-05-16T00:29:07.345Z,0.00
2023-05-16T00:30:07.334Z,0.00
2023-05-16T00:31:07.349Z,0.00
2023-05-16T00:32:07.335Z,0.00
2023-05-16T00:33:07.379Z,0.00
2023-05-16T00:34:07.348Z,0.00
2023-05-16T00:35:07.343Z,0.00
2023-05-16T00:36:08.268Z,0.00
2023-05-16T00:37:07.313Z,0.00
2023-05-16T00:38:07.251Z,0.00
2023-05-16T00:39:07.266Z,0.00
2023-05-16T00:40:07.282Z,0.00
2023-05-16T00:41:07.249Z,0.00
2023-05-16T00:42:07.258Z,0.00
2023-05-16T00:43:07.251Z,0.00
2023-05-16T00:44:07.271Z,0.00
2023-05-16T00:45:07.263Z,0.00
2023-05-16T00:46:07.238Z,0.00
2023-05-16T00:47:07.210Z,0.00
2023-05-16T00:48:07.330Z,0.00
2023-05-16T00:49:07.163Z,0.00
2023-05-16T00:50:07.224Z,0.00
2023-05-16T00:51:07.168Z,0.00
2023-05-16T00:52:07.194Z,0.00
2023-05-16T00:53:07.176Z,0.00
2023-05-16T00:54:07.175Z,0.00
2023-05-16T00:55:07.218Z,0.00
2023-05-16T00:56:07.174Z,0.00
2023-05-16T00:57:07.168Z,0.00
2023-05-16T00:58:07.114Z,0.00
2023-05-16T00:59:07.144Z,0.00
2023-05-16T01:00:07.102Z,0.00
2023-05-16T01:01:07.142Z,0.00
2023-05-16T01:02:07.134Z,0.00
2023-05-16T01:03:07.134Z,0.00
2023-05-16T01:04:07.852Z,0.00
2023-05-16T01:05:07.063Z,0.00
2023-05-16T01:06:07.116Z,0.00
2023-05-16T01:07:08.122Z,0.00
2023-05-16T01:08:07.127Z,0.00
2023-05-16T01:09:07.141Z,0.00
2023-05-16T01:10:07.119Z,0.00
2023-05-16T01:11:07.041Z,0.00
2023-05-16T01:12:08.138Z,0.00
2023-05-16T01:13:07.095Z,0.00
2023-05-16T01:14:07.074Z,0.00
2023-05-16T01:15:07.038Z,0.00
2023-05-16T01:16:07.037Z,0.00
2023-05-16T01:17:06.994Z,0.00
2023-05-16T01:18:07.086Z,0.00
2023-05-16T01:19:06.963Z,0.00
2023-05-16T01:20:06.969Z,0.00
2023-05-16T01:21:06.955Z,0.00
2023-05-16T01:22:06.940Z,0.00
2023-05-16T01:23:06.966Z,0.00
2023-05-16T01:24:07.734Z,0.00
2023-05-16T01:25:06.927Z,0.00
2023-05-16T01:26:06.923Z,0.00
2023-05-16T01:27:06.904Z,0.00
2023-05-16T01:28:06.948Z,0.00
2023-05-16T01:29:06.944Z,0.00
2023-05-16T01:30:06.907Z,0.00
2023-05-16T01:31:06.950Z,0.00
2023-05-16T01:32:06.903Z,0.00
2023-05-16T01:33:06.979Z,0.00
2023-05-16T01:34:06.894Z,0.00
2023-05-16T01:35:06.856Z,0.00
2023-05-16T01:36:06.858Z,0.00
2023-05-16T01:37:06.933Z,0.00
2023-05-16T01:38:06.939Z,0.00
2023-05-16T01:39:06.897Z,0.00
2023-05-16T01:40:06.834Z,0.00
2023-05-16T01:41:06.815Z,0.00
2023-05-16T01:42:06.800Z,0.00
2023-05-16T01:43:06.825Z,0.00
2023-05-16T01:44:06.846Z,0.00
2023-05-16T01:45:06.803Z,0.00
2023-05-16T01:46:06.792Z,0.00
2023-05-16T01:47:06.848Z,0.00
2023-05-16T01:48:06.809Z,0.00
2023-05-16T01:49:13.684Z,0.00
2023-05-16T01:50:06.776Z,0.00
2023-05-16T01:51:06.748Z,0.00
2023-05-16T01:52:06.771Z,0.00
2023-05-16T01:53:06.773Z,0.00
2023-05-16T01:54:06.713Z,0.00
2023-05-16T01:55:06.746Z,0.00
2023-05-16T01:56:06.728Z,0.00
2023-05-16T01:57:06.756Z,0.00
2023-05-16T01:58:06.688Z,0.00
2023-05-16T01:59:06.682Z,0.00
2023-05-16T02:00:06.682Z,0.00
2023-05-16T02:01:06.690Z,0.00
2023-05-16T02:02:06.667Z,0.00
2023-05-16T02:03:06.747Z,0.00
2023-05-16T02:04:06.690Z,0.00
2023-05-16T02:05:06.658Z,0.00
2023-05-16T02:06:06.760Z,0.00
2023-05-16T02:07:06.630Z,0.00
2023-05-16T02:08:06.644Z,0.00
2023-05-16T02:09:06.642Z,0.00
2023-05-16T02:10:06.623Z,0.00
2023-05-16T02:11:06.651Z,0.00
2023-05-16T02:12:06.590Z,0.00
2023-05-16T02:13:06.611Z,0.00
2023-05-16T02:14:06.615Z,0.00
2023-05-16T02:15:06.607Z,0.00
2023-05-16T02:16:06.657Z,0.00
2023-05-16T02:17:06.612Z,0.00
2023-05-16T02:18:06.616Z,0.00
2023-05-16T02:19:06.599Z,0.00
2023-05-16T02:20:06.543Z,0.00
2023-05-16T02:21:06.526Z,0.00
2023-05-16T02:22:06.559Z,0.00
2023-05-16T02:23:06.530Z,0.00
2023-05-16T02:24:06.522Z,0.00
2023-05-16T02:25:06.550Z,0.00
2023-05-16T02:26:06.499Z,0.00
2023-05-16T02:27:06.513Z,0.00
2023-05-16T02:28:06.507Z,0.00
2023-05-16T02:29:06.504Z,0.00
2023-05-16T02:30:06.464Z,0.00
2023-05-16T02:31:06.491Z,0.00
2023-05-16T02:32:06.445Z,0.00
2023-05-16T02:33:06.514Z,0.00
2023-05-16T02:34:06.459Z,0.00
2023-05-16T02:35:06.416Z,0.00
2023-05-16T02:36:06.458Z,0.00
2023-05-16T02:37:06.481Z,0.00
2023-05-16T02:38:06.432Z,0.00
2023-05-16T02:39:06.400Z,0.00
2023-05-16T02:40:06.415Z,0.00
2023-05-16T02:41:06.385Z,0.00
2023-05-16T02:42:06.421Z,0.00
2023-05-16T02:43:06.473Z,0.00
2023-05-16T02:44:06.382Z,0.00
2023-05-16T02:45:06.363Z,0.00
2023-05-16T02:46:06.373Z,0.00
2023-05-16T02:47:06.346Z,0.00
2023-05-16T02:48:06.333Z,0.00
2023-05-16T02:49:06.340Z,0.00
2023-05-16T02:50:06.321Z,0.00
2023-05-16T02:51:06.311Z,0.00
2023-05-16T02:52:06.298Z,0.00
2023-05-16T02:53:06.303Z,0.00
2023-05-16T02:54:06.332Z,0.00
2023-05-16T02:55:21.078Z,0.00
2023-05-16T02:56:08.324Z,0.00
2023-05-16T02:57:06.270Z,0.00
2023-05-16T02:58:06.298Z,0.00
2023-05-16T02:59:06.293Z,0.00
2023-05-16T03:00:06.340Z,0.00
2023-05-16T03:01:06.284Z,0.00
2023-05-16T03:02:06.363Z,0.00
2023-05-16T03:03:06.297Z,0.00
2023-05-16T03:04:06.415Z,0.00
2023-05-16T03:05:06.235Z,0.00
2023-05-16T03:06:06.323Z,0.00
2023-05-16T03:07:06.228Z,0.00
2023-05-16T03:08:06.258Z,0.00
2023-05-16T03:09:06.234Z,0.00
2023-05-16T03:10:06.239Z,0.00
2023-05-16T03:11:06.241Z,0.00
2023-05-16T03:12:07.084Z,0.00
2023-05-16T03:13:06.172Z,0.00
2023-05-16T03:14:06.161Z,0.00
2023-05-16T03:15:06.155Z,0.00
2023-05-16T03:16:06.296Z,0.00
2023-05-16T03:17:06.177Z,0.00
2023-05-16T03:18:06.232Z,0.00
2023-05-16T03:19:06.196Z,0.00
2023-05-16T03:20:06.176Z,0.00
2023-05-16T03:21:06.136Z,0.00
2023-05-16T03:22:06.161Z,0.00
2023-05-16T03:23:06.119Z,0.00
2023-05-16T03:24:06.132Z,0.00
2023-05-16T03:25:06.142Z,0.00
2023-05-16T03:26:06.108Z,0.00
2023-05-16T03:27:06.105Z,0.00
2023-05-16T03:28:06.115Z,0.00
2023-05-16T03:29:06.096Z,0.00
2023-05-16T03:30:06.052Z,0.00
2023-05-16T03:31:06.185Z,0.00
2023-05-16T03:32:06.226Z,0.00
2023-05-16T03:33:06.135Z,0.00
2023-05-16T03:34:06.042Z,0.00
2023-05-16T03:35:06.047Z,0.00
2023-05-16T03:36:06.006Z,0.00
2023-05-16T03:37:06.006Z,0.00
2023-05-16T03:38:06.054Z,0.00
2023-05-16T03:39:05.987Z,0.00
2023-05-16T03:40:05.994Z,0.00
2023-05-16T03:41:05.980Z,0.00
2023-05-16T03:42:05.968Z,0.00
2023-05-16T03:43:05.985Z,0.00
2023-05-16T03:44:06.052Z,0.00
2023-05-16T03:45:05.954Z,0.00
2023-05-16T03:46:05.940Z,0.00
2023-05-16T03:47:05.938Z,0.00
2023-05-16T03:48:06.020Z,0.00
2023-05-16T03:49:05.942Z,0.00
2023-05-16T03:50:05.925Z,5.62
2023-05-16T03:51:05.930Z,5.62
2023-05-16T03:52:05.928Z,5.62
2023-05-16T03:53:05.909Z,5.62
2023-05-16T03:54:05.912Z,5.62
2023-05-16T03:55:05.948Z,5.62
2023-05-16T03:56:05.869Z,5.62
2023-05-16T03:57:05.879Z,11.25
2023-05-16T03:58:05.877Z,11.25
2023-05-16T03:59:05.888Z,11.25
2023-05-16T04:00:05.919Z,11.25
2023-05-16T04:01:05.830Z,11.25
2023-05-16T04:02:05.907Z,16.88
2023-05-16T04:03:05.907Z,16.88
2023-05-16T04:04:05.895Z,16.88
2023-05-16T04:05:05.853Z,16.88
2023-05-16T04:06:05.932Z,16.88
2023-05-16T04:07:05.784Z,16.88
2023-05-16T04:08:05.927Z,16.88
2023-05-16T04:09:05.863Z,16.88
2023-05-16T04:10:05.807Z,16.88
2023-05-16T04:11:05.761Z,16.88
2023-05-16T04:12:05.763Z,16.88
2023-05-16T04:13:05.808Z,16.88
2023-05-16T04:14:05.828Z,22.50
2023-05-16T04:15:05.761Z,22.50
2023-05-16T04:16:05.781Z,22.50
2023-05-16T04:17:06.924Z,16.88
2023-05-16T04:18:05.776Z,22.50
2023-05-16T04:19:05.819Z,22.50
2023-05-16T04:20:05.708Z,22.50
2023-05-16T04:21:05.737Z,22.50
2023-05-16T04:22:05.740Z,22.50
2023-05-16T04:23:05.714Z,22.50
2023-05-16T04:24:05.666Z,28.12
2023-05-16T04:25:05.671Z,28.12
2023-05-16T04:26:05.686Z,28.12
2023-05-16T04:27:05.682Z,33.75
2023-05-16T04:28:05.664Z,33.75
2023-05-16T04:29:05.683Z,28.12
2023-05-16T04:30:05.702Z,28.12
2023-05-16T04:31:05.679Z,28.12
2023-05-16T04:32:05.670Z,28.12
2023-05-16T04:33:05.643Z,28.12
2023-05-16T04:34:05.678Z,33.75
2023-05-16T04:35:05.901Z,33.75
2023-05-16T04:36:05.622Z,33.75
2023-05-16T04:37:06.606Z,33.75
2023-05-16T04:38:05.581Z,33.75
2023-05-16T04:39:05.584Z,33.75
2023-05-16T04:40:05.613Z,28.12
2023-05-16T04:41:05.583Z,28.12
2023-05-16T04:42:05.620Z,28.12
2023-05-16T04:43:05.559Z,28.12
2023-05-16T04:44:05.549Z,28.12
2023-05-16T04:45:05.581Z,28.12
2023-05-16T04:46:05.601Z,28.12
2023-05-16T04:47:05.556Z,22.50
2023-05-16T04:48:05.560Z,22.50
2023-05-16T04:49:05.607Z,16.88
2023-05-16T04:50:05.574Z,16.88
2023-05-16T04:51:05.521Z,16.88
2023-05-16T04:52:05.558Z,16.88
2023-05-16T04:53:05.500Z,16.88
2023-05-16T04:54:05.489Z,22.50
2023-05-16T04:55:05.480Z,22.50
2023-05-16T04:56:05.488Z,33.75
2023-05-16T04:57:06.212Z,33.75
2023-05-16T04:58:05.448Z,39.38
2023-05-16T04:59:05.469Z,39.38
2023-05-16T05:00:05.518Z,39.38
2023-05-16T05:01:05.591Z,45.00
2023-05-16T05:02:05.510Z,50.62
2023-05-16T05:03:05.449Z,50.62
2023-05-16T05:04:05.452Z,50.62
2023-05-16T05:05:05.445Z,45.00
2023-05-16T05:06:05.376Z,45.00
2023-05-16T05:07:05.381Z,45.00
2023-05-16T05:08:05.397Z,45.00
2023-05-16T05:09:05.348Z,45.00
2023-05-16T05:10:05.387Z,39.38
2023-05-16T05:11:05.391Z,39.38
2023-05-16T05:12:05.346Z,39.38
2023-05-16T05:13:05.363Z,39.38
2023-05-16T05:14:05.327Z,39.38
2023-05-16T05:15:05.357Z,39.38
2023-05-16T05:16:05.330Z,33.75
2023-05-16T05:17:05.354Z,33.75
2023-05-16T05:18:05.420Z,33.75
2023-05-16T05:19:05.479Z,33.75
2023-05-16T05:20:05.304Z,39.38
2023-05-16T05:21:05.301Z,39.38
2023-05-16T05:22:05.306Z,45.00
2023-05-16T05:23:05.432Z,45.00
2023-05-16T05:24:06.549Z,50.62
2023-05-16T05:25:05.266Z,50.62
2023-05-16T05:26:05.281Z,56.25
2023-05-16T05:27:05.327Z,56.25
2023-05-16T05:28:05.266Z,50.62
2023-05-16T05:29:06.214Z,45.00
2023-05-16T05:30:05.279Z,50.62
2023-05-16T05:31:05.246Z,45.00
2023-05-16T05:32:05.369Z,50.62
2023-05-16T05:33:05.276Z,50.62
2023-05-16T05:34:05.209Z,50.62
2023-05-16T05:35:05.183Z,50.62
2023-05-16T05:36:05.200Z,56.25
2023-05-16T05:37:05.163Z,56.25
2023-05-16T05:38:05.204Z,61.88
2023-05-16T05:39:05.172Z,61.88
2023-05-16T05:40:05.184Z,61.88
2023-05-16T05:41:05.140Z,56.25
2023-05-16T05:42:05.130Z,56.25
2023-05-16T05:43:05.175Z,56.25
2023-05-16T05:44:05.153Z,50.62
2023-05-16T05:45:05.119Z,50.62
2023-05-16T05:46:05.168Z,45.00
2023-05-16T05:47:05.089Z,45.00
2023-05-16T05:48:05.123Z,45.00
2023-05-16T05:49:05.115Z,61.88
2023-05-16T05:50:06.483Z,67.50
2023-05-16T05:51:05.082Z,73.12
2023-05-16T05:52:05.118Z,78.75
2023-05-16T05:53:05.051Z,84.38
2023-05-16T05:54:05.088Z,78.75
2023-05-16T05:55:05.065Z,78.75
2023-05-16T05:56:05.061Z,78.75
2023-05-16T05:57:05.030Z,73.12
2023-05-16T05:58:07.055Z,73.12
2023-05-16T05:59:06.080Z,78.75
2023-05-16T06:00:05.052Z,90.00
2023-05-16T06:01:05.010Z,95.62
2023-05-16T06:02:05.040Z,95.62
2023-05-16T06:03:05.056Z,101.25
2023-05-16T06:04:05.002Z,101.25
2023-05-16T06:05:05.034Z,112.50
2023-05-16T06:06:05.072Z,129.38
2023-05-16T06:07:05.009Z,135.00
2023-05-16T06:08:05.006Z,129.38
2023-05-16T06:09:04.974Z,123.75
2023-05-16T06:10:05.327Z,129.38
2023-05-16T06:11:05.938Z,135.00
2023-05-16T06:12:04.939Z,146.25
2023-05-16T06:13:04.970Z,140.62
2023-05-16T06:14:04.923Z,140.62
2023-05-16T06:15:04.956Z,135.00
2023-05-16T06:16:05.485Z,140.62
2023-05-16T06:17:04.942Z,163.12
2023-05-16T06:18:04.969Z,174.38
2023-05-16T06:19:05.010Z,185.62
2023-05-16T06:20:04.995Z,208.12
2023-05-16T06:21:04.917Z,230.62
2023-05-16T06:22:04.904Z,264.38
2023-05-16T06:23:04.854Z,286.88
2023-05-16T06:24:04.917Z,298.12
2023-05-16T06:25:04.891Z,303.75
2023-05-16T06:26:04.882Z,315.00
2023-05-16T06:27:04.877Z,326.25
2023-05-16T06:28:04.850Z,331.88
2023-05-16T06:29:04.843Z,337.50
2023-05-16T06:30:04.818Z,348.75
2023-05-16T06:31:04.988Z,348.75
2023-05-16T06:32:04.837Z,354.38
2023-05-16T06:33:04.883Z,365.62
2023-05-16T06:34:04.790Z,371.25
2023-05-16T06:35:04.933Z,376.88
2023-05-16T06:36:04.804Z,382.50
2023-05-16T06:37:04.760Z,388.12
2023-05-16T06:38:04.762Z,399.38
2023-05-16T06:39:04.759Z,405.00
2023-05-16T06:40:04.805Z,410.62
2023-05-16T06:41:04.766Z,421.88
2023-05-16T06:42:04.753Z,421.88
2023-05-16T06:43:04.720Z,433.12
2023-05-16T06:44:04.723Z,444.38
2023-05-16T06:45:04.800Z,455.62
2023-05-16T06:46:04.742Z,478.12
2023-05-16T06:47:04.737Z,495.00
2023-05-16T06:48:04.703Z,506.25
2023-05-16T06:49:04.674Z,511.88
2023-05-16T06:50:05.332Z,500.62
2023-05-16T06:51:04.694Z,489.38
2023-05-16T06:52:05.017Z,444.38
2023-05-16T06:53:04.650Z,405.00
2023-05-16T06:54:04.638Z,343.12
2023-05-16T06:55:04.729Z,309.38
2023-05-16T06:56:04.678Z,320.62
2023-05-16T06:57:04.663Z,315.00
2023-05-16T06:58:04.653Z,303.75
2023-05-16T06:59:04.621Z,286.88
2023-05-16T07:00:04.609Z,275.62
2023-05-16T07:01:04.722Z,258.75
2023-05-16T07:02:04.574Z,247.50
2023-05-16T07:03:04.674Z,230.62
2023-05-16T07:04:04.708Z,208.12
2023-05-16T07:05:04.576Z,196.88
2023-05-16T07:06:04.701Z,185.62
2023-05-16T07:07:04.610Z,174.38
2023-05-16T07:08:06.233Z,163.12
2023-05-16T07:09:04.702Z,157.50
2023-05-16T07:10:04.579Z,151.88
2023-05-16T07:11:04.606Z,151.88
2023-05-16T07:12:04.583Z,163.12
2023-05-16T07:13:04.778Z,180.00
2023-05-16T07:14:04.562Z,196.88
2023-05-16T07:15:04.525Z,225.00
2023-05-16T07:16:04.645Z,241.88
2023-05-16T07:17:04.566Z,270.00
2023-05-16T07:18:04.572Z,303.75
2023-05-16T07:19:04.607Z,337.50
2023-05-16T07:20:05.341Z,354.38
2023-05-16T07:21:05.480Z,371.25
2023-05-16T07:22:04.502Z,388.12
2023-05-16T07:23:04.468Z,393.75
2023-05-16T07:24:04.461Z,416.25
2023-05-16T07:25:04.461Z,433.12
2023-05-16T07:26:04.532Z,455.62
2023-05-16T07:27:04.492Z,500.62
2023-05-16T07:28:04.468Z,630.00
2023-05-16T07:29:04.457Z,680.62
2023-05-16T07:30:04.470Z,832.50
2023-05-16T07:31:04.434Z,793.12
2023-05-16T07:32:04.462Z,708.75
2023-05-16T07:33:04.440Z,731.25
2023-05-16T07:34:04.447Z,731.25
2023-05-16T07:35:04.432Z,720.00
2023-05-16T07:36:16.075Z,601.88
2023-05-16T07:37:06.350Z,545.62
2023-05-16T07:38:04.379Z,500.62
2023-05-16T07:39:04.339Z,495.00
2023-05-16T07:40:04.379Z,528.75
2023-05-16T07:41:04.342Z,579.38
2023-05-16T07:42:04.323Z,534.38
2023-05-16T07:43:04.405Z,551.25
2023-05-16T07:44:04.363Z,545.62
2023-05-16T07:45:04.423Z,714.38
2023-05-16T07:46:04.379Z,495.00
2023-05-16T07:47:04.308Z,427.50
2023-05-16T07:48:04.315Z,354.38
2023-05-16T07:49:04.285Z,326.25
2023-05-16T07:50:04.301Z,331.88
2023-05-16T07:51:04.304Z,360.00
2023-05-16T07:52:04.254Z,360.00
2023-05-16T07:53:04.282Z,326.25
2023-05-16T07:54:04.236Z,320.62
2023-05-16T07:55:04.307Z,343.12
2023-05-16T07:56:04.247Z,382.50
2023-05-16T07:57:04.236Z,376.88
2023-05-16T07:58:04.244Z,360.00
2023-05-16T07:59:04.783Z,348.75
2023-05-16T08:00:04.213Z,348.75
2023-05-16T08:01:04.213Z,360.00
2023-05-16T08:02:04.263Z,382.50
2023-05-16T08:03:04.324Z,466.88
2023-05-16T08:04:04.312Z,601.88
2023-05-16T08:05:04.173Z,511.88
2023-05-16T08:06:04.277Z,618.75
2023-05-16T08:07:04.229Z,686.25
2023-05-16T08:08:04.241Z,810.00
2023-05-16T08:09:04.196Z,1276.88
2023-05-16T08:10:04.166Z,630.00
2023-05-16T08:11:04.148Z,585.00
2023-05-16T08:12:04.199Z,545.62
2023-05-16T08:13:05.177Z,506.25
2023-05-16T08:14:36.597Z,528.75
2023-05-16T08:15:04.132Z,855.00
2023-05-16T08:16:04.189Z,585.00
2023-05-16T08:17:04.155Z,528.75
2023-05-16T08:18:37.590Z,523.12
2023-05-16T08:19:36.541Z,534.38
2023-05-16T08:20:04.138Z,506.25
2023-05-16T08:21:36.517Z,495.00
2023-05-16T08:22:37.670Z,686.25
2023-05-16T08:23:37.534Z,849.38
2023-05-16T08:24:36.521Z,556.88
2023-05-16T08:25:04.128Z,540.00
2023-05-16T08:26:04.145Z,613.12
2023-05-16T08:27:36.477Z,540.00
2023-05-16T08:28:04.202Z,635.62
2023-05-16T08:29:04.031Z,888.75
2023-05-16T08:30:04.062Z,871.88
2023-05-16T08:31:04.157Z,641.25
2023-05-16T08:32:04.013Z,635.62
2023-05-16T08:33:04.088Z,708.75
2023-05-16T08:36:02.723Z,961.88
2023-05-16T08:37:02.739Z,579.38
2023-05-16T08:38:02.720Z,556.88
2023-05-16T08:39:02.744Z,585.00
2023-05-16T08:40:02.737Z,596.25
2023-05-16T08:41:02.708Z,562.50
2023-05-16T08:42:02.878Z,759.38
2023-05-16T08:43:02.686Z,1023.75
2023-05-16T08:44:02.707Z,787.50
2023-05-16T08:45:02.686Z,933.75
2023-05-16T08:46:02.846Z,866.25
2023-05-16T08:47:02.735Z,720.00
2023-05-16T08:48:02.781Z,1170.00
2023-05-16T08:49:02.656Z,1085.62
2023-05-16T08:50:03.819Z,1035.00
2023-05-16T08:51:03.785Z,787.50
2023-05-16T08:52:03.787Z,1102.50
2023-05-16T08:53:03.727Z,1260.00
2023-05-16T08:54:04.500Z,1293.75
2023-05-16T08:56:04.915Z,1344.38
2023-05-16T08:57:03.706Z,1085.62
2023-05-16T08:58:03.742Z,1153.12
2023-05-16T08:59:03.725Z,1170.00
2023-05-16T09:00:03.700Z,1282.50
2023-05-16T09:01:03.722Z,1158.75
2023-05-16T09:02:03.770Z,905.62
2023-05-16T09:03:03.698Z,866.25
2023-05-16T09:04:03.750Z,798.75
2023-05-16T09:05:03.716Z,770.62
2023-05-16T09:06:04.906Z,675.00
2023-05-16T09:07:03.663Z,624.38
2023-05-16T09:08:03.654Z,573.75
2023-05-16T09:09:04.492Z,573.75
2023-05-16T09:10:03.700Z,601.88
2023-05-16T09:11:03.674Z,675.00
2023-05-16T09:12:03.609Z,568.12
2023-05-16T09:13:03.717Z,596.25
2023-05-16T09:14:03.617Z,618.75
2023-05-16T09:15:03.612Z,646.88
2023-05-16T09:16:03.606Z,697.50
2023-05-16T09:17:03.649Z,798.75
2023-05-16T09:18:03.749Z,877.50
2023-05-16T09:19:03.648Z,776.25
2023-05-16T09:20:03.560Z,725.62
2023-05-16T09:21:03.571Z,686.25
2023-05-16T09:22:03.559Z,669.38
2023-05-16T09:23:03.599Z,663.75
2023-05-16T09:24:03.687Z,793.12
2023-05-16T09:25:03.527Z,725.62
2023-05-16T09:26:03.577Z,720.00
2023-05-16T09:27:03.512Z,663.75
2023-05-16T09:28:03.891Z,618.75
2023-05-16T09:29:03.499Z,579.38
2023-05-16T09:30:03.508Z,556.88
2023-05-16T09:31:03.741Z,551.25
2023-05-16T09:32:03.557Z,562.50
2023-05-16T09:33:03.682Z,630.00
2023-05-16T09:34:03.493Z,742.50
2023-05-16T09:35:03.523Z,922.50
2023-05-16T09:36:03.483Z,990.00
2023-05-16T09:37:03.441Z,1158.75
2023-05-16T09:38:03.461Z,1428.75
2023-05-16T09:39:03.449Z,2199.38
2023-05-16T09:40:04.061Z,2221.88
2023-05-16T09:41:03.462Z,1209.38
2023-05-16T09:42:03.716Z,1743.75
2023-05-16T09:43:04.432Z,1248.75
2023-05-16T09:44:03.402Z,933.75
2023-05-16T09:45:03.418Z,905.62
2023-05-16T09:46:03.430Z,748.12
2023-05-16T09:47:03.394Z,652.50
2023-05-16T09:48:03.430Z,708.75
2023-05-16T09:49:03.425Z,680.62
2023-05-16T09:50:03.991Z,641.25
2023-05-16T09:51:03.405Z,624.38
2023-05-16T09:52:03.366Z,1248.75
2023-05-16T09:53:03.398Z,1265.62
2023-05-16T09:54:03.349Z,1805.62
2023-05-16T09:55:03.350Z,804.38
2023-05-16T09:56:03.403Z,2306.25
2023-05-16T09:57:03.457Z,714.38
2023-05-16T09:58:03.358Z,652.50
2023-05-16T09:59:03.365Z,725.62
2023-05-16T10:00:03.336Z,652.50
2023-05-16T10:01:03.328Z,2154.38
2023-05-16T10:02:03.323Z,2396.25
2023-05-16T10:03:05.375Z,2373.75
2023-05-16T10:04:04.417Z,2317.50
2023-05-16T10:05:06.013Z,2289.38
2023-05-16T10:06:03.371Z,2362.50
2023-05-16T10:07:03.287Z,2458.12
2023-05-16T10:08:03.372Z,1704.38
2023-05-16T10:09:03.337Z,725.62
2023-05-16T10:10:03.261Z,1839.38
2023-05-16T10:11:03.274Z,2441.25
2023-05-16T10:12:03.284Z,2446.88
2023-05-16T10:13:03.295Z,860.62
2023-05-16T10:14:04.524Z,714.38
2023-05-16T10:15:03.238Z,624.38
2023-05-16T10:16:03.301Z,585.00
2023-05-16T10:17:03.244Z,562.50
2023-05-16T10:18:03.280Z,568.12
2023-05-16T10:19:03.306Z,658.12
2023-05-16T10:20:03.182Z,1946.25
2023-05-16T10:21:04.366Z,1884.38
2023-05-16T10:22:04.249Z,2058.75
2023-05-16T10:23:03.223Z,2244.38
2023-05-16T10:24:03.273Z,2334.38
2023-05-16T10:25:03.155Z,2446.88
2023-05-16T10:26:03.141Z,1811.25
2023-05-16T10:27:03.171Z,1895.62
2023-05-16T10:28:03.171Z,2143.12
2023-05-16T10:29:03.151Z,748.12
2023-05-16T10:30:03.218Z,1777.50
2023-05-16T10:31:03.155Z,2047.50
2023-05-16T10:32:03.137Z,2070.00
2023-05-16T10:33:03.162Z,2278.12
2023-05-16T10:34:03.111Z,742.50
2023-05-16T10:35:03.360Z,697.50
2023-05-16T10:36:03.188Z,624.38
2023-05-16T10:37:03.094Z,607.50
2023-05-16T10:38:03.096Z,2041.88
2023-05-16T10:39:03.109Z,2053.12
2023-05-16T10:40:03.184Z,742.50
2023-05-16T10:41:03.087Z,601.88
2023-05-16T10:42:03.064Z,528.75
2023-05-16T10:43:03.072Z,506.25
2023-05-16T10:44:03.087Z,781.88
2023-05-16T10:45:05.863Z,1546.88
2023-05-16T10:46:04.037Z,798.75
2023-05-16T10:47:02.996Z,590.62
2023-05-16T10:48:03.038Z,540.00
2023-05-16T10:49:03.022Z,523.12
2023-05-16T10:50:03.042Z,500.62
2023-05-16T10:51:03.015Z,500.62
2023-05-16T10:52:03.014Z,523.12
2023-05-16T10:53:03.000Z,607.50
2023-05-16T10:54:02.981Z,1946.25
2023-05-16T10:55:02.971Z,2278.12
2023-05-16T10:56:02.963Z,2283.75
2023-05-16T10:57:02.946Z,1811.25
2023-05-16T10:58:02.966Z,641.25
2023-05-16T10:59:02.937Z,579.38
2023-05-16T11:00:02.929Z,601.88
2023-05-16T11:01:03.050Z,686.25
2023-05-16T11:02:02.956Z,1980.00
2023-05-16T11:03:02.922Z,2053.12
2023-05-16T11:04:03.021Z,1468.12
2023-05-16T11:05:02.957Z,2115.00
2023-05-16T11:06:02.994Z,2126.25
2023-05-16T11:07:02.897Z,2205.00
2023-05-16T11:08:02.912Z,1119.38
2023-05-16T11:09:02.863Z,2216.25
2023-05-16T11:10:03.380Z,1485.00
2023-05-16T11:11:02.876Z,714.38
2023-05-16T11:12:02.920Z,2295.00
2023-05-16T11:13:02.849Z,832.50
2023-05-16T11:14:02.839Z,1631.25
2023-05-16T11:15:02.884Z,984.38
2023-05-16T11:16:02.822Z,708.75
2023-05-16T11:17:02.947Z,663.75
2023-05-16T11:18:02.845Z,1226.25
2023-05-16T11:19:02.859Z,748.12
2023-05-16T11:20:02.805Z,2098.12
2023-05-16T11:21:02.845Z,2143.12
2023-05-16T11:22:02.795Z,2255.62
2023-05-16T11:23:02.824Z,1991.25
2023-05-16T11:24:02.766Z,1968.75
2023-05-16T11:25:02.977Z,2086.88
2023-05-16T11:26:02.808Z,753.75
2023-05-16T11:27:02.762Z,703.12
2023-05-16T11:28:02.755Z,1333.12
2023-05-16T11:29:02.735Z,680.62
2023-05-16T11:30:03.542Z,663.75
2023-05-16T11:31:03.733Z,838.12
2023-05-16T11:32:02.837Z,652.50
2023-05-16T11:33:02.831Z,613.12
2023-05-16T11:34:02.689Z,596.25
2023-05-16T11:35:02.761Z,663.75
2023-05-16T11:36:14.482Z,646.88
2023-05-16T11:37:04.707Z,607.50
2023-05-16T11:38:02.693Z,675.00
2023-05-16T11:39:02.733Z,641.25
2023-05-16T11:40:02.822Z,2463.75
2023-05-16T11:41:02.730Z,2300.62
2023-05-16T11:42:02.658Z,1001.25
2023-05-16T11:43:03.510Z,1828.12
2023-05-16T11:44:02.654Z,573.75
2023-05-16T11:45:02.614Z,540.00
2023-05-16T11:46:02.651Z,517.50
2023-05-16T11:47:02.778Z,523.12
2023-05-16T11:48:02.696Z,489.38
2023-05-16T11:49:02.651Z,450.00
2023-05-16T11:50:02.580Z,416.25
2023-05-16T11:51:02.622Z,393.75
2023-05-16T11:52:02.608Z,416.25
2023-05-16T11:53:03.523Z,528.75
2023-05-16T11:54:02.567Z,551.25
2023-05-16T11:55:02.564Z,2311.88
2023-05-16T11:56:02.527Z,2278.12
2023-05-16T11:57:02.610Z,2227.50
2023-05-16T11:58:02.598Z,2193.75
2023-05-16T11:59:02.603Z,2148.75
2023-05-16T12:00:02.557Z,686.25
2023-05-16T12:01:02.517Z,556.88
2023-05-16T12:02:02.588Z,511.88
2023-05-16T12:03:02.561Z,495.00
2023-05-16T12:04:02.809Z,483.75
2023-05-16T12:05:02.532Z,478.12
2023-05-16T12:06:02.514Z,466.88
2023-05-16T12:07:02.488Z,472.50
2023-05-16T12:08:02.788Z,483.75
2023-05-16T12:09:02.511Z,534.38
2023-05-16T12:10:02.472Z,635.62
2023-05-16T12:11:02.474Z,2514.38
2023-05-16T12:12:02.473Z,2525.62
2023-05-16T12:13:02.466Z,843.75
2023-05-16T12:14:02.441Z,1794.38
2023-05-16T12:15:02.420Z,793.12
2023-05-16T12:16:02.404Z,798.75
2023-05-16T12:17:02.460Z,922.50
2023-05-16T12:18:02.634Z,624.38
2023-05-16T12:19:02.733Z,590.62
2023-05-16T12:20:02.385Z,691.88
2023-05-16T12:21:02.405Z,691.88
2023-05-16T12:22:02.400Z,776.25
2023-05-16T12:23:02.672Z,2283.75
2023-05-16T12:24:02.432Z,2351.25
2023-05-16T12:25:02.358Z,2351.25
2023-05-16T12:26:02.979Z,2205.00
2023-05-16T12:27:02.359Z,2278.12
2023-05-16T12:28:02.392Z,2255.62
2023-05-16T12:29:02.390Z,1991.25
2023-05-16T12:30:02.382Z,590.62
2023-05-16T12:31:02.570Z,568.12
2023-05-16T12:32:02.326Z,618.75
2023-05-16T12:33:04.220Z,607.50
2023-05-16T12:34:02.341Z,1878.75
2023-05-16T12:35:02.291Z,1771.88
2023-05-16T12:36:02.326Z,590.62
2023-05-16T12:37:02.405Z,551.25
2023-05-16T12:38:02.308Z,568.12
2023-05-16T12:39:02.292Z,646.88
2023-05-16T12:40:02.286Z,725.62
2023-05-16T12:41:02.231Z,613.12
2023-05-16T12:42:02.268Z,2188.12
2023-05-16T12:43:02.345Z,551.25
2023-05-16T12:44:02.249Z,506.25
2023-05-16T12:45:02.306Z,556.88
2023-05-16T12:46:02.258Z,528.75
2023-05-16T12:47:02.233Z,585.00